Saskatoon, Saskatchewan

1:09 PM CST on August 30, 2016 (GMT -0600)
Saskatoon-Diefenbaker International | | Change Station

Elev 1654 ft 52.17 °N, 106.69 °W | Updated 9 minutes ago

Scattered Clouds
Scattered Clouds
70 °F
Feels Like 70 °F
N
13
Wind Variable Wind from ESE

Today
High -- | Low -- °F
--% Chance of Precip.
Yesterday
High -- | Low -- °F
Precip. -- in
Pressure 30.29 in
Visibility 15.0 miles
Clouds Scattered Clouds 25000 ft
Dew Point 45 °F
Humidity 40%
Rainfall 0.00 in
Snow Depth Not available.
6:15 AM 7:57 PM
Waning Crescent, 3% visible
METAR CYXE 301900Z 11011KT 080V140 15SM SCT250 21/07 A3026 RMK CI3 SLP257 DENSITY ALT 2300FT
Pressure 30.29 in
Visibility 15.0 miles
Clouds Scattered Clouds 25000 ft
Dew Point 45 °F
Humidity 40%
Rainfall 0.00 in
Snow Depth Not available.
6:15 AM 7:57 PM
Waning Crescent, 3% visible
METAR CYXE 301900Z 11011KT 080V140 15SM SCT250 21/07 A3026 RMK CI3 SLP257 DENSITY ALT 2300FT

10-Day Weather Forecast

Almanac

Astronomy

Aug. 30, 2016 Rise Set
Actual Time
Civil Twilight
Nautical Twilight
Astronomical Twilight
Moon
Length of Visible Light
Length of Day
Tomorrow will be .
, % of the Moon is Illuminated

Today's Extremes

Country Highs Country Lows

Community

WunderPhotos

Upload Photos

1,935,879 photos uploaded!

WunderBlog® & News

Nearby

Air Quality

  Air Quality AQ Index Pollutant
Not available.

Snow Depth

Station Depth Elevation

Earthquake Activity

City Distance Mag. Time & Date
Minimum magnitude displayed is 2.5.

Coastal Water Temperatures

Place Temperature

Stations

Nearby Weather Stations

Station Location Temp. Windchill Dew Point Humidity Wind Precip. Elev Updated Type
                   

Watches & Warnings

There are currently no watches in effect.